Time;durP1;ratioP1;P1;durP2;ratioP2;P2;SDS_P1;SDS_P2;PMS_P1;PMS_P2;Temp;Humidity;BMP_temperature;BMP_pressure;BME280_temperature;BME280_humidity;BME280_pressure;Samples;Min_cycle;Max_cycle;Signal;HPM_P1;HPM_P2
2021/06/20 00:00:47;;;;;;;16.20;4.95;;;;;;;22.94;79.46;97825.16;5000414;28;20339;-64
2021/06/20 00:03:13;;;;;;;13.93;4.40;;;;;;;22.86;79.21;97820.41;5004953;28;20026;-64
2021/06/20 00:05:58;;;;;;;11.02;4.15;;;;;;;22.88;79.14;97841.75;5004644;28;20025;-63
2021/06/20 00:08:23;;;;;;;17.70;4.70;;;;;;;22.91;78.69;97857.59;5004650;28;20220;-64
2021/06/20 00:10:49;;;;;;;16.33;4.22;;;;;;;22.89;78.48;97864.91;4988801;28;20042;-64
2021/06/20 00:13:16;;;;;;;10.90;4.00;;;;;;;22.91;78.29;97858.44;4985127;28;20337;-64
2021/06/20 00:15:43;;;;;;;12.35;5.00;;;;;;;22.75;79.00;97851.75;4985029;28;20023;-64
2021/06/20 00:18:08;;;;;;;9.60;3.33;;;;;;;22.74;79.17;97837.47;4985078;28;20019;-64
2021/06/20 00:20:41;;;;;;;7.65;3.90;;;;;;;22.68;77.52;97834.44;4998235;28;20045;-64
2021/06/20 00:23:07;;;;;;;6.50;2.80;;;;;;;22.71;77.26;97839.53;4989499;28;20018;-64
2021/06/20 00:25:33;;;;;;;10.07;3.13;;;;;;;22.69;77.25;97841.53;4985035;28;20183;-64
2021/06/20 00:27:59;;;;;;;10.85;3.55;;;;;;;22.46;78.22;97845.16;4984948;28;20022;-63
2021/06/20 00:30:28;;;;;;;9.60;2.95;;;;;;;22.38;78.07;97852.94;4984971;28;20026;-63
2021/06/20 00:32:54;;;;;;;11.40;3.50;;;;;;;22.38;78.10;97852.94;4996790;28;20046;-64
2021/06/20 00:35:19;;;;;;;9.25;3.00;;;;;;;22.30;78.15;97855.38;5004304;28;20019;-63
2021/06/20 00:37:45;;;;;;;7.88;3.00;;;;;;;22.21;78.22;97850.75;5004322;28;20029;-63
2021/06/20 00:40:12;;;;;;;9.48;2.85;;;;;;;22.23;77.09;97848.78;5004308;28;20053;-63
2021/06/20 00:42:38;;;;;;;6.93;2.35;;;;;;;22.13;77.77;97853.16;4994522;28;20026;-64
2021/06/20 00:45:06;;;;;;;6.85;2.67;;;;;;;22.03;78.07;97858.38;4985059;28;20310;-64
2021/06/20 00:47:31;;;;;;;6.95;2.58;;;;;;;21.95;77.74;97859.94;4984674;28;20030;-63
2021/06/20 00:49:57;;;;;;;9.77;2.85;;;;;;;21.88;78.28;97864.91;4984746;28;20022;-63
2021/06/20 00:52:22;;;;;;;10.00;2.80;;;;;;;21.74;78.44;97877.66;4991683;28;20322;-64
2021/06/20 00:54:48;;;;;;;8.77;3.08;;;;;;;21.80;77.79;97869.16;5004206;28;20029;-64
2021/06/20 00:57:20;;;;;;;5.53;2.45;;;;;;;21.63;78.73;97864.19;5004052;28;20029;-64
2021/06/20 00:59:45;;;;;;;;;;;;;;;21.63;78.55;97869.53;5006946;28;20042;-63
2021/06/20 01:02:12;;;;;;;6.93;2.10;;;;;;;21.61;78.51;97882.22;4998512;28;19928;-63
2021/06/20 01:04:46;;;;;;;6.30;2.60;;;;;;;21.60;78.27;97880.47;4994244;28;20318;-63
2021/06/20 01:07:19;;;;;;;7.10;2.70;;;;;;;21.50;78.55;97882.13;5004061;28;20085;-63
2021/06/20 01:09:45;;;;;;;5.93;2.58;;;;;;;21.49;78.52;97872.41;5005790;28;20318;-64
2021/06/20 01:12:12;;;;;;;7.88;2.50;;;;;;;21.33;79.51;97868.19;4989550;28;20065;-63
2021/06/20 01:14:38;;;;;;;5.93;2.42;;;;;;;21.32;78.80;97864.78;4988242;28;20365;-64
2021/06/20 01:17:04;;;;;;;9.10;3.00;;;;;;;21.13;80.18;97860.78;4988167;28;20030;-64
2021/06/20 01:19:30;;;;;;;11.25;2.60;;;;;;;21.12;79.26;97869.78;4988207;28;20082;-64
2021/06/20 01:21:57;;;;;;;5.60;2.35;;;;;;;20.89;80.68;97867.88;5004271;28;20314;-64
2021/06/20 01:24:23;;;;;;;6.88;2.35;;;;;;;20.87;80.67;97872.53;5007598;28;20029;-64
2021/06/20 01:26:49;;;;;;;8.32;2.10;;;;;;;20.78;80.52;97870.50;5007545;28;20022;-63
2021/06/20 01:29:16;;;;;;;8.77;2.22;;;;;;;20.83;80.60;97872.84;5007475;28;20198;-63
2021/06/20 01:31:49;;;;;;;5.63;2.20;;;;;;;20.85;80.65;97882.47;4993360;28;20034;-64
2021/06/20 01:34:16;;;;;;;5.60;2.40;;;;;;;20.74;81.07;97893.09;4987958;28;20135;-64
2021/06/20 01:36:42;;;;;;;8.88;2.38;;;;;;;20.69;81.40;97884.53;4987800;28;20029;-64
2021/06/20 01:39:08;;;;;;;5.35;2.30;;;;;;;20.57;81.33;97882.72;4987798;28;20022;-64
2021/06/20 01:41:34;;;;;;;7.78;2.85;;;;;;;20.54;82.47;97888.28;5000457;28;20030;-64
2021/06/20 01:43:59;;;;;;;10.02;2.88;;;;;;;20.53;82.68;97873.22;5007285;28;20072;-64
2021/06/20 01:46:25;;;;;;;6.82;2.53;;;;;;;20.53;82.86;97875.91;5007173;28;20014;-64
2021/06/20 01:48:50;;;;;;;11.57;2.78;;;;;;;20.53;83.06;97880.41;5003213;28;20340;-64
2021/06/20 01:51:15;;;;;;;3.72;2.25;;;;;;;20.53;83.01;97873.22;4987614;28;20027;-64
2021/06/20 01:53:41;;;;;;;10.38;2.63;;;;;;;20.55;83.05;97890.03;4987514;28;20318;-63
2021/06/20 01:56:07;;;;;;;7.15;2.25;;;;;;;20.63;82.14;97905.53;4987450;28;20038;-63
2021/06/20 01:58:33;;;;;;;7.70;2.28;;;;;;;20.53;82.84;97913.31;4971069;28;20026;-63
2021/06/20 02:00:58;;;;;;;5.72;2.30;;;;;;;20.62;83.22;97912.69;4989380;28;20368;-63
2021/06/20 02:03:27;;;;;;;7.20;2.90;;;;;;;20.53;83.40;97926.69;5007139;28;20033;-64
2021/06/20 02:05:57;;;;;;;7.22;2.83;;;;;;;20.55;83.37;97931.94;5006810;28;20065;-63
2021/06/20 02:08:22;;;;;;;6.20;2.22;;;;;;;20.56;83.06;97939.84;5006729;28;20053;-63
2021/06/20 02:10:55;;;;;;;4.70;2.22;;;;;;;20.62;83.26;97950.13;4988355;28;20042;-63
2021/06/20 02:13:24;;;;;;;8.00;3.20;;;;;;;20.62;83.27;97960.81;4987467;28;20023;-63
2021/06/20 02:15:50;;;;;;;5.38;2.63;;;;;;;20.66;83.45;97967.66;4987097;28;20277;-63
2021/06/20 02:18:16;;;;;;;8.07;2.75;;;;;;;20.68;83.45;97968.41;4987122;28;20090;-63
2021/06/20 02:20:42;;;;;;;7.78;2.72;;;;;;;20.64;83.49;97966.91;5003767;28;20023;-63
2021/06/20 02:23:07;;;;;;;8.30;2.60;;;;;;;20.60;84.03;97960.06;5006528;28;20026;-63
2021/06/20 02:25:33;;;;;;;5.43;2.90;;;;;;;20.59;84.02;97955.69;5006483;28;20018;-63
2021/06/20 02:28:00;;;;;;;6.38;2.80;;;;;;;20.67;83.77;97972.06;5006404;28;20026;-63
2021/06/20 02:30:25;;;;;;;8.75;2.83;;;;;;;20.69;83.67;97972.78;4991121;28;20050;-63
2021/06/20 02:32:53;;;;;;;5.97;2.88;;;;;;;20.84;82.66;97970.84;4986860;28;20090;-64
2021/06/20 02:35:19;;;;;;;7.32;2.80;;;;;;;20.87;82.73;97968.81;4986912;28;20031;-64
2021/06/20 02:37:46;;;;;;;8.38;2.92;;;;;;;20.84;82.43;97966.34;4986757;28;20034;-64
2021/06/20 02:40:13;;;;;;;6.82;2.67;;;;;;;20.83;82.07;97959.31;4999524;28;20072;-64
2021/06/20 02:42:39;;;;;;;7.05;2.78;;;;;;;20.79;81.83;97976.50;5006146;28;20026;-64
2021/06/20 02:45:06;;;;;;;7.35;2.35;;;;;;;20.91;81.42;97983.69;5006175;28;20086;-64
2021/06/20 02:47:32;;;;;;;6.47;2.20;;;;;;;20.82;81.37;97992.34;5005958;28;20023;-64
2021/06/20 02:49:57;;;;;;;6.95;2.40;;;;;;;20.71;82.03;98002.09;4994994;28;20041;-64
2021/06/20 02:52:23;;;;;;;5.68;2.33;;;;;;;20.61;82.83;97993.00;4986468;28;20018;-64
2021/06/20 02:54:51;;;;;;;10.45;2.30;;;;;;;20.63;82.33;97989.25;4986451;28;20078;-64
2021/06/20 02:57:23;;;;;;;8.05;2.50;;;;;;;20.57;82.04;98003.03;4988675;28;20022;-64
2021/06/20 02:59:49;;;;;;;7.38;2.70;;;;;;;20.52;81.62;98007.88;5008191;28;20046;-64
2021/06/20 03:02:15;;;;;;;5.10;2.10;;;;;;;20.53;81.20;98008.75;5005797;28;20064;-64
2021/06/20 03:04:41;;;;;;;4.07;2.03;;;;;;;20.47;81.32;98009.16;5005733;28;20022;-64
2021/06/20 03:07:07;;;;;;;6.53;2.00;;;;;;;20.43;80.98;98013.84;5004621;28;20265;-64
2021/06/20 03:09:34;;;;;;;7.50;2.10;;;;;;;20.38;80.92;98021.31;4986443;28;20090;-64
2021/06/20 03:12:00;;;;;;;6.78;1.90;;;;;;;20.39;80.32;98023.03;4986390;28;20126;-64
2021/06/20 03:14:26;;;;;;;5.60;1.90;;;;;;;20.34;80.50;98017.13;4986374;28;20029;-64
2021/06/20 03:16:51;;;;;;;5.43;2.10;;;;;;;20.38;80.16;98015.97;4997543;28;20266;-64
2021/06/20 03:19:17;;;;;;;6.75;1.60;;;;;;;20.34;80.26;98017.13;5005477;28;20053;-64
2021/06/20 03:21:42;;;;;;;4.43;1.70;;;;;;;20.29;80.04;98018.41;5005423;28;20094;-64
2021/06/20 03:24:08;;;;;;;8.50;2.00;;;;;;;20.19;80.64;98026.19;5005367;28;20336;-64
2021/06/20 03:26:33;;;;;;;5.70;1.55;;;;;;;20.25;79.82;98036.47;4996099;28;20065;-64
2021/06/20 03:29:00;;;;;;;8.40;1.75;;;;;;;20.17;80.13;98041.50;4985840;28;20375;-64
2021/06/20 03:31:25;;;;;;;6.03;1.73;;;;;;;20.19;79.82;98034.19;4985539;28;20369;-64
2021/06/20 03:33:51;;;;;;;4.97;1.67;;;;;;;20.06;80.48;98030.59;4985340;28;20035;-64
2021/06/20 03:36:18;;;;;;;7.57;2.15;;;;;;;20.02;81.15;98034.44;4992075;28;20322;-64
2021/06/20 03:38:43;;;;;;;6.18;2.05;;;;;;;19.96;81.06;98029.50;5005086;28;20026;-64
2021/06/20 03:41:10;;;;;;;5.50;1.65;;;;;;;19.94;81.17;98036.78;5005087;28;20089;-64
2021/06/20 03:43:36;;;;;;;8.10;1.85;;;;;;;20.00;80.66;98020.31;5005042;28;20274;-64
2021/06/20 03:46:01;;;;;;;5.43;1.65;;;;;;;19.98;81.01;98016.94;5000700;28;20022;-64
2021/06/20 03:48:27;;;;;;;9.57;1.67;;;;;;;19.95;81.31;98019.78;4985529;28;20073;-64
2021/06/20 03:50:52;;;;;;;5.70;1.60;;;;;;;20.06;80.60;98019.91;4985452;28;20254;-64
2021/06/20 03:53:18;;;;;;;7.50;1.67;;;;;;;20.10;80.68;98008.09;4985431;28;20109;-64
2021/06/20 03:55:43;;;;;;;7.25;2.00;;;;;;;20.07;81.29;98010.97;4986728;28;20027;-64
2021/06/20 03:58:09;;;;;;;2.58;1.63;;;;;;;20.07;81.13;98000.28;5004745;28;20021;-64
2021/06/20 04:00:35;;;;;;;5.25;1.63;;;;;;;20.14;80.83;98001.63;5004613;28;20105;-64
2021/06/20 04:03:03;;;;;;;5.80;1.60;;;;;;;20.15;80.41;98002.47;5004970;28;20213;-64
2021/06/20 04:05:28;;;;;;;6.70;1.75;;;;;;;20.20;80.14;98001.19;5004706;28;20092;-64
2021/06/20 04:07:54;;;;;;;6.95;2.10;;;;;;;20.25;80.10;97996.38;4985755;28;20023;-64
2021/06/20 04:10:19;;;;;;;6.13;1.65;;;;;;;20.30;80.66;97990.72;4985176;28;20081;-64
2021/06/20 04:12:45;;;;;;;5.35;1.92;;;;;;;20.30;79.89;98002.28;4985408;28;20071;-64
2021/06/20 04:15:11;;;;;;;5.65;1.60;;;;;;;20.25;80.02;98009.75;4985023;28;20027;-64
2021/06/20 04:17:36;;;;;;;4.95;1.80;;;;;;;20.19;80.82;98028.84;5001129;28;20034;-64
2021/06/20 04:20:03;;;;;;;5.82;1.77;;;;;;;20.31;80.20;98030.72;5004509;28;20022;-64
2021/06/20 04:22:28;;;;;;;7.13;1.98;;;;;;;20.26;80.21;98035.53;5004537;28;20340;-64
2021/06/20 04:24:54;;;;;;;2.97;1.52;;;;;;;20.28;80.25;98040.78;5004466;28;20027;-64
2021/06/20 04:27:20;;;;;;;8.43;1.70;;;;;;;20.20;80.26;98054.66;4990495;28;20023;-64
2021/06/20 04:29:45;;;;;;;5.65;1.55;;;;;;;20.19;80.34;98058.25;4984959;28;20050;-64
2021/06/20 04:32:11;;;;;;;7.90;1.90;;;;;;;20.13;80.95;98053.34;4985194;28;20026;-64
2021/06/20 04:34:36;;;;;;;4.57;1.88;;;;;;;20.10;80.91;98053.53;4984931;28;20050;-64
2021/06/20 04:37:02;;;;;;;6.07;1.77;;;;;;;20.17;80.85;98062.88;4995893;28;20037;-64
2021/06/20 04:39:28;;;;;;;6.90;1.98;;;;;;;20.24;80.59;98061.50;5004296;28;20258;-64
2021/06/20 04:41:53;;;;;;;6.97;1.77;;;;;;;20.26;80.65;98064.94;5004266;28;20077;-64
2021/06/20 04:47:03;;;;;;;6.32;1.60;;;;;;;20.27;80.97;98055.94;4996950;28;20341;-64
2021/06/20 04:49:28;;;;;;;5.05;1.52;;;;;;;20.32;81.55;98053.81;4988778;28;20089;-64
2021/06/20 04:51:54;;;;;;;5.60;1.75;;;;;;;20.26;81.71;98064.94;4988730;28;20345;-64
2021/06/20 04:54:19;;;;;;;8.63;1.88;;;;;;;20.28;81.05;98076.34;4989727;28;20027;-64
2021/06/20 04:56:45;;;;;;;6.70;1.55;;;;;;;20.26;81.31;98078.28;5001430;28;20214;-64
2021/06/20 04:59:10;;;;;;;4.93;2.00;;;;;;;20.24;81.42;98077.53;4988505;28;20134;-64
2021/06/20 05:01:37;;;;;;;3.65;1.90;;;;;;;20.28;81.17;98088.88;4988379;28;20034;-64
2021/06/20 05:04:04;;;;;;;8.40;1.80;;;;;;;20.24;81.28;98082.88;4988733;28;20249;-64
2021/06/20 05:06:29;;;;;;;11.00;2.35;;;;;;;20.25;81.96;98092.59;4994442;28;20020;-64
2021/06/20 05:08:55;;;;;;;3.75;1.65;;;;;;;20.31;81.63;98091.34;5008162;28;20022;-64
2021/06/20 05:11:20;;;;;;;4.57;1.70;;;;;;;20.35;81.01;98091.00;5007896;28;20216;-64
2021/06/20 05:13:46;;;;;;;7.00;2.03;;;;;;;20.28;81.91;98095.06;5007799;28;20025;-64
2021/06/20 05:16:11;;;;;;;4.85;1.73;;;;;;;20.23;82.18;98086.50;5004066;28;20026;-64
2021/06/20 05:18:37;;;;;;;7.53;1.65;;;;;;;20.29;81.06;98075.41;4988220;28;20023;-64
2021/06/20 05:21:02;;;;;;;5.70;1.73;;;;;;;20.36;80.76;98076.72;4988268;28;20314;-64
2021/06/20 05:23:28;;;;;;;5.78;1.85;;;;;;;20.36;80.75;98060.69;4988161;28;20336;-64
2021/06/20 05:25:53;;;;;;;4.10;1.90;;;;;;;20.34;80.95;98070.59;4988858;28;20025;-64
2021/06/20 05:28:19;;;;;;;8.20;2.28;;;;;;;20.26;80.91;98075.63;5007532;28;20026;-64
2021/06/20 05:30:45;;;;;;;8.02;2.33;;;;;;;20.37;80.38;98078.41;5007751;28;20221;-64
2021/06/20 05:33:17;;;;;;;5.35;1.90;;;;;;;20.35;81.48;98080.31;5007470;28;20019;-64
2021/06/20 05:35:43;;;;;;;;;;;;;;;20.45;80.21;98093.94;5007745;28;20026;-64
2021/06/20 05:38:09;;;;;;;9.02;2.05;;;;;;;20.44;81.62;98094.91;4988694;28;20215;-64
2021/06/20 05:40:36;;;;;;;7.30;2.10;;;;;;;20.39;81.28;98092.53;5004031;28;20119;-64
2021/06/20 05:43:02;;;;;;;4.85;1.80;;;;;;;20.45;81.46;98080.56;4999350;28;20123;-64
2021/06/20 05:45:28;;;;;;;3.75;2.10;;;;;;;20.45;81.69;98080.56;5001389;28;20061;-64
2021/06/20 05:47:53;;;;;;;7.85;2.40;;;;;;;20.45;81.21;98086.78;4999287;28;20015;-64
2021/06/20 05:50:19;;;;;;;5.45;2.05;;;;;;;20.54;80.21;98096.84;4995770;28;20254;-64
2021/06/20 05:52:44;;;;;;;6.97;2.10;;;;;;;20.55;80.16;98087.00;5024334;28;20313;-64
2021/06/20 05:55:10;;;;;;;5.22;2.15;;;;;;;20.64;80.13;98084.59;5008773;28;20026;-64
2021/06/20 05:57:36;;;;;;;5.20;2.13;;;;;;;20.63;80.37;98088.19;5001700;28;20050;-64
2021/06/20 06:00:04;;;;;;;5.00;1.70;;;;;;;20.69;79.52;98089.63;5006960;28;20050;-64
2021/06/20 06:02:29;;;;;;;6.72;1.98;;;;;;;20.77;79.31;98090.81;4999712;28;20023;-64
2021/06/20 06:04:54;;;;;;;5.70;2.05;;;;;;;20.81;78.40;98099.44;5006293;28;20037;-64
2021/06/20 06:07:20;;;;;;;6.13;2.15;;;;;;;20.93;78.88;98087.91;5006803;28;20018;-64
2021/06/20 06:09:45;;;;;;;6.25;2.28;;;;;;;20.98;79.03;98081.31;4987734;28;20035;-64
2021/06/20 06:12:11;;;;;;;4.05;1.63;;;;;;;21.08;77.55;98074.34;4987258;28;20126;-64
2021/06/20 06:14:36;;;;;;;4.82;2.28;;;;;;;21.08;77.64;98092.25;4987237;28;20086;-64
2021/06/20 06:17:02;;;;;;;4.70;2.10;;;;;;;21.11;78.86;98087.50;4987333;28;20034;-64
2021/06/20 06:19:27;;;;;;;6.13;2.10;;;;;;;21.32;78.01;98089.66;4987099;28;20082;-64
2021/06/20 06:21:53;;;;;;;4.15;2.00;;;;;;;21.26;78.51;98069.50;5005536;28;20424;-64
2021/06/20 06:24:18;;;;;;;7.88;2.10;;;;;;;21.33;78.09;98066.28;5006172;28;20027;-64
2021/06/20 06:26:43;;;;;;;6.65;2.25;;;;;;;21.36;77.01;98069.72;4995242;28;20027;-64
2021/06/20 06:29:10;;;;;;;6.22;1.67;;;;;;;21.40;76.24;98071.22;4997163;28;20267;-64
2021/06/20 06:31:36;;;;;;;6.13;2.20;;;;;;;21.42;78.45;98080.00;4996364;28;20030;-64
2021/06/20 06:34:05;;;;;;;7.40;2.05;;;;;;;21.57;76.28;98084.28;4995322;28;20022;-64
2021/06/20 06:36:30;;;;;;;4.28;2.03;;;;;;;21.65;75.81;98081.88;4995533;28;20023;-64
2021/06/20 06:38:56;;;;;;;4.00;2.08;;;;;;;21.79;75.55;98079.06;4996071;28;20218;-64
2021/06/20 06:41:21;;;;;;;3.80;2.22;;;;;;;22.05;74.91;98070.84;4996959;28;20034;-64
2021/06/20 06:43:47;;;;;;;5.28;1.60;;;;;;;22.12;74.43;98065.88;4995024;28;20026;-64
2021/06/20 06:46:13;;;;;;;5.50;1.83;;;;;;;22.11;75.25;98074.91;4996348;28;20090;-64
2021/06/20 06:48:38;;;;;;;4.47;1.85;;;;;;;22.07;76.04;98078.75;4996448;28;20197;-64
2021/06/20 06:51:04;;;;;;;6.00;2.00;;;;;;;21.94;74.61;98094.91;4994902;28;20126;-64
2021/06/20 06:53:30;;;;;;;6.15;1.90;;;;;;;21.96;73.79;98102.84;4989137;28;20039;-64
2021/06/20 06:55:57;;;;;;;5.43;2.05;;;;;;;22.09;75.00;98082.19;4986393;28;20030;-64
2021/06/20 06:58:22;;;;;;;6.28;2.13;;;;;;;22.34;72.94;98079.41;5004477;28;20033;-64
2021/06/20 07:00:48;;;;;;;10.38;2.20;;;;;;;22.37;74.71;98076.47;5005686;28;20097;-64
2021/06/20 07:03:14;;;;;;;8.13;2.25;;;;;;;22.45;73.43;98084.78;5005741;28;20030;-64
2021/06/20 07:05:39;;;;;;;5.45;2.00;;;;;;;22.62;70.72;98081.75;5005724;28;20045;-64
2021/06/20 07:08:05;;;;;;;6.05;2.15;;;;;;;22.69;70.26;98072.25;4991410;28;20022;-64
2021/06/20 07:10:31;;;;;;;4.85;1.70;;;;;;;22.77;69.80;98067.13;5005920;28;20373;-64
2021/06/20 07:12:57;;;;;;;5.68;2.00;;;;;;;23.04;68.52;98071.19;4995763;28;20027;-64
2021/06/20 07:15:22;;;;;;;7.03;1.80;;;;;;;23.60;66.99;98068.59;4986033;28;20034;-64
2021/06/20 07:17:48;;;;;;;2.75;1.40;;;;;;;24.04;64.04;98071.22;4986071;28;20050;-64
2021/06/20 07:20:17;;;;;;;4.07;1.88;;;;;;;24.15;64.88;98058.59;4986023;28;20218;-64
2021/06/20 07:22:44;;;;;;;5.50;1.70;;;;;;;24.49;63.33;98041.31;5005828;28;20026;-64
2021/06/20 07:25:11;;;;;;;3.72;1.50;;;;;;;24.74;62.78;98051.75;5005230;28;20019;-64
2021/06/20 07:27:44;;;;;;;5.15;1.60;;;;;;;24.74;63.21;98050.91;5205352;27;19911;-63
2021/06/20 07:30:13;;;;;;;5.35;1.90;;;;;;;24.36;63.72;98046.03;5183986;27;20022;-63
2021/06/20 07:32:40;;;;;;;5.63;1.73;;;;;;;25.81;59.70;98049.50;5183209;27;20022;-63
2021/06/20 07:35:07;;;;;;;2.85;1.45;;;;;;;26.72;58.95;98048.19;5184034;27;20029;-63
2021/06/20 07:37:33;;;;;;;4.10;1.20;;;;;;;26.63;56.34;98040.94;5183938;27;20018;-63
2021/06/20 07:39:59;;;;;;;2.63;1.40;;;;;;;26.03;56.88;98039.34;5183829;27;20026;-63
2021/06/20 07:42:24;;;;;;;5.38;1.73;;;;;;;26.66;56.91;98046.06;5183876;27;20026;-63
2021/06/20 07:44:50;;;;;;;7.70;1.50;;;;;;;26.90;53.56;98051.88;5183774;27;20014;-63
2021/06/20 07:47:16;;;;;;;4.80;1.60;;;;;;;27.86;53.98;98042.47;5183668;27;20058;-63
2021/06/20 07:49:41;;;;;;;3.88;1.48;;;;;;;28.12;53.32;98037.19;5183695;27;20115;-63
2021/06/20 07:52:07;;;;;;;4.15;1.30;;;;;;;27.59;52.08;98044.28;5183661;27;20052;-63
2021/06/20 07:54:32;;;;;;;5.88;1.65;;;;;;;27.60;53.81;98036.03;5183647;27;20021;-63
2021/06/20 07:56:58;;;;;;;3.20;1.48;;;;;;;27.03;52.85;98036.19;5181884;27;20021;-63
2021/06/20 07:59:23;;;;;;;3.15;1.20;;;;;;;27.03;54.17;98038.91;5162653;27;20018;-63
2021/06/20 08:01:48;;;;;;;2.67;1.40;;;;;;;26.93;54.58;98036.22;5162879;27;20257;-63
2021/06/20 08:04:14;;;;;;;2.22;1.25;;;;;;;27.42;52.77;98029.69;5162531;27;20034;-63
2021/06/20 08:06:39;;;;;;;6.93;1.63;;;;;;;28.35;49.43;98036.56;5162421;27;20088;-63
2021/06/20 08:09:05;;;;;;;4.00;1.40;;;;;;;27.70;53.73;98027.84;5162737;27;20312;-63
2021/06/20 08:11:32;;;;;;;4.68;1.60;;;;;;;27.24;52.99;98029.63;5162417;27;20018;-63
2021/06/20 08:13:57;;;;;;;3.90;1.40;;;;;;;26.87;51.61;98030.56;5162315;27;20332;-63
2021/06/20 08:16:24;;;;;;;5.32;1.83;;;;;;;25.93;57.11;98021.38;5162325;27;20019;-63
2021/06/20 08:18:49;;;;;;;2.75;1.65;;;;;;;25.96;56.49;98021.13;5162252;27;20059;-63
2021/06/20 08:21:15;;;;;;;4.13;1.52;;;;;;;25.68;59.05;98019.19;5162226;27;20023;-63
2021/06/20 08:23:40;;;;;;;4.38;1.60;;;;;;;25.73;57.78;98035.81;5162160;27;20030;-63
2021/06/20 08:26:06;;;;;;;4.03;1.85;;;;;;;25.59;58.95;98044.31;5161903;27;20223;-63
2021/06/20 08:28:32;;;;;;;4.80;1.80;;;;;;;25.56;59.13;98044.56;5162005;27;20019;-63
2021/06/20 08:30:58;;;;;;;5.03;1.63;;;;;;;25.87;58.47;98043.50;5161507;27;20022;-63
2021/06/20 08:33:24;;;;;;;14.82;3.83;;;;;;;26.16;55.70;98049.88;5160814;27;20067;-63
2021/06/20 08:35:49;;;;;;;4.60;1.77;;;;;;;26.10;56.41;98050.44;5160954;27;20249;-63
2021/06/20 08:38:14;;;;;;;5.68;1.50;;;;;;;25.68;57.34;98054.25;5152075;27;20314;-63
2021/06/20 08:40:42;;;;;;;5.07;1.60;;;;;;;25.33;58.12;98048.44;5147090;27;20269;-63
2021/06/20 08:43:07;;;;;;;3.65;2.08;;;;;;;25.20;57.59;98044.09;5147051;27;20209;-63
2021/06/20 08:45:32;;;;;;;6.88;2.08;;;;;;;25.03;57.56;98051.94;5146497;27;20015;-63
2021/06/20 08:47:59;;;;;;;5.45;1.75;;;;;;;24.88;59.19;98047.88;5146950;27;20094;-63
2021/06/20 08:50:25;;;;;;;5.90;1.63;;;;;;;24.52;60.45;98046.44;5146900;27;20023;-63
2021/06/20 08:52:54;;;;;;;5.50;2.03;;;;;;;24.22;61.92;98043.66;5147163;27;20030;-63
2021/06/20 08:55:20;;;;;;;3.17;1.67;;;;;;;24.34;60.65;98050.72;5146809;27;20068;-63
2021/06/20 08:57:48;;;;;;;4.30;2.03;;;;;;;24.31;62.77;98040.22;5146273;27;20042;-63
2021/06/20 09:00:16;;;;;;;3.97;1.58;;;;;;;24.51;62.19;98025.91;5146987;27;20015;-63
2021/06/20 09:02:41;;;;;;;3.30;1.40;;;;;;;24.93;59.15;98029.50;5146536;27;20284;-63
2021/06/20 09:05:09;;;;;;;4.07;1.80;;;;;;;24.95;59.93;98039.16;5146648;27;20022;-63
2021/06/20 09:07:36;;;;;;;3.80;1.67;;;;;;;25.21;62.15;98023.38;5146442;27;20023;-63
2021/06/20 09:10:09;;;;;;;8.20;1.95;;;;;;;24.96;58.58;98024.69;5146553;27;20015;-63
2021/06/20 09:13:08;;;;;;;5.35;2.13;;;;;;;25.12;58.82;98025.06;5146256;27;20015;-63
2021/06/20 09:15:34;;;;;;;6.40;1.85;;;;;;;25.19;59.30;98020.00;5142348;27;20042;-63
2021/06/20 09:18:10;;;;;;;3.42;1.60;;;;;;;25.48;58.14;98014.75;5146362;27;20023;-63
2021/06/20 09:20:36;;;;;;;4.95;1.75;;;;;;;25.61;57.33;98015.34;5146363;27;20073;-63
2021/06/20 09:23:08;;;;;;;4.60;1.88;;;;;;;25.59;56.19;98002.00;5127879;27;20133;-63
2021/06/20 09:25:34;;;;;;;3.53;1.50;;;;;;;25.19;60.11;98001.97;5145719;27;20015;-63
2021/06/20 09:28:01;;;;;;;6.28;2.03;;;;;;;25.38;59.82;98008.47;5146179;27;20277;-63
2021/06/20 09:30:30;;;;;;;4.10;1.70;;;;;;;26.17;56.78;98016.50;5146134;27;20023;-63
2021/06/20 09:32:57;;;;;;;4.80;1.77;;;;;;;27.20;53.78;98014.69;5146047;27;20327;-63
2021/06/20 09:35:24;;;;;;;4.72;1.80;;;;;;;27.60;50.42;98000.03;5146042;27;20015;-63
2021/06/20 09:37:58;;;;;;;3.42;1.65;;;;;;;27.86;49.45;98001.91;5145724;27;20056;-63
2021/06/20 09:40:30;;;;;;;5.18;1.73;;;;;;;28.19;50.64;98005.81;5142714;27;20023;-63
2021/06/20 09:42:56;;;;;;;4.75;1.80;;;;;;;28.37;49.65;97998.50;5129206;27;20019;-63
2021/06/20 09:45:30;;;;;;;3.50;1.50;;;;;;;28.50;49.95;97989.03;5126126;28;20034;-63
2021/06/20 09:47:55;;;;;;;5.43;1.85;;;;;;;28.36;47.76;97976.03;5126420;28;20024;-63
2021/06/20 09:50:35;;;;;;;5.70;1.60;;;;;;;28.80;50.91;97985.03;5125088;28;20338;-63
2021/06/20 09:53:02;;;;;;;4.53;1.58;;;;;;;29.47;47.43;97984.28;5126076;28;20033;-63
2021/06/20 09:55:27;;;;;;;2.65;1.48;;;;;;;29.58;47.80;97986.72;5126235;28;20252;-63
2021/06/20 09:57:53;;;;;;;2.35;1.45;;;;;;;29.83;46.26;97977.69;5125856;28;20023;-63
2021/06/20 10:00:18;;;;;;;4.75;1.88;;;;;;;30.14;43.46;97978.75;5125860;28;20019;-63
2021/06/20 10:02:44;;;;;;;4.95;1.63;;;;;;;30.01;45.10;97962.97;5125900;28;20027;-64
2021/06/20 10:05:11;;;;;;;4.30;1.50;;;;;;;30.33;43.55;97964.88;5125830;28;20027;-63
2021/06/20 10:07:38;;;;;;;4.63;1.38;;;;;;;30.13;42.59;97961.63;5125682;28;20027;-63
2021/06/20 10:10:06;;;;;;;3.97;1.60;;;;;;;29.95;43.34;97960.91;5125687;28;20030;-63
2021/06/20 10:12:32;;;;;;;6.45;1.85;;;;;;;30.20;45.17;97961.81;5125622;28;20030;-63
2021/06/20 10:15:00;;;;;;;3.25;1.58;;;;;;;30.02;45.73;97969.25;5125597;28;20027;-63
2021/06/20 10:17:38;;;;;;;4.85;1.80;;;;;;;30.18;46.20;97958.44;5133804;27;20222;-63
2021/06/20 10:20:09;;;;;;;4.20;1.58;;;;;;;30.21;43.90;97958.13;5145730;27;20077;-63
2021/06/20 10:22:40;;;;;;;5.15;1.40;;;;;;;30.45;43.03;97960.81;5144263;27;20015;-63
2021/06/20 10:25:09;;;;;;;5.03;2.35;;;;;;;30.86;41.87;97951.66;5135324;27;20016;-63
2021/06/20 10:27:38;;;;;;;3.90;1.40;;;;;;;30.96;42.87;97950.47;5125153;28;20042;-63
2021/06/20 10:30:21;;;;;;;3.90;1.60;;;;;;;31.20;41.99;97942.22;5125276;28;20019;-63
2021/06/20 10:32:49;;;;;;;2.70;1.40;;;;;;;31.05;42.77;97949.44;5125427;28;20030;-63
2021/06/20 10:35:20;;;;;;;3.13;1.30;;;;;;;31.19;41.39;97934.25;5125488;28;20050;-63
2021/06/20 10:37:46;;;;;;;3.92;1.67;;;;;;;31.23;42.36;97930.16;5125279;28;20024;-63
2021/06/20 10:40:21;;;;;;;5.55;1.50;;;;;;;30.93;41.75;97926.34;5125171;28;20188;-63
2021/06/20 10:42:48;;;;;;;3.03;1.52;;;;;;;30.48;43.52;97919.75;5125066;28;20020;-63
2021/06/20 10:45:28;;;;;;;2.95;1.35;;;;;;;30.50;43.04;97912.28;5125073;28;20091;-63
2021/06/20 10:47:54;;;;;;;3.83;1.73;;;;;;;30.73;43.02;97905.16;5125024;28;20068;-63
2021/06/20 10:50:20;;;;;;;6.32;1.60;;;;;;;30.85;42.57;97898.34;5124997;28;20041;-63
2021/06/20 10:52:56;;;;;;;3.35;1.40;;;;;;;30.79;46.17;97896.31;5124980;28;20314;-63
2021/06/20 10:55:22;;;;;;;4.65;1.70;;;;;;;31.11;43.30;97893.50;5124879;28;20102;-63
2021/06/20 10:57:50;;;;;;;4.68;1.65;;;;;;;30.85;40.74;97887.47;5124741;28;20026;-63
2021/06/20 11:00:29;;;;;;;6.40;2.00;;;;;;;29.58;42.69;97884.47;5124590;28;20042;-63
2021/06/20 11:03:05;;;;;;;2.92;1.60;;;;;;;27.75;48.02;97883.09;5124790;28;20023;-63
2021/06/20 11:05:51;;;;;;;5.30;1.75;;;;;;;27.82;48.29;97886.00;5124705;28;20024;-63
2021/06/20 11:08:27;;;;;;;5.88;1.60;;;;;;;27.59;48.09;97877.53;5124967;28;20019;-63
2021/06/20 11:11:26;;;;;;;4.85;1.70;;;;;;;28.69;51.20;97883.22;5124660;28;20024;-63
2021/06/20 11:13:54;;;;;;;4.90;1.83;;;;;;;28.96;48.00;97872.22;5116912;28;20102;-63
2021/06/20 11:16:44;;;;;;;5.63;2.08;;;;;;;28.64;50.07;97869.31;5124530;28;20020;-63
2021/06/20 11:19:21;;;;;;;3.75;1.83;;;;;;;28.67;50.45;97857.31;5124639;28;20015;-63
2021/06/20 11:21:57;;;;;;;6.28;1.92;;;;;;;28.44;48.49;97856.97;5124542;28;20030;-63
2021/06/20 11:24:29;;;;;;;5.85;1.80;;;;;;;28.61;48.30;97847.13;5124546;28;20020;-63
2021/06/20 11:27:06;;;;;;;4.40;1.55;;;;;;;28.20;45.80;97850.53;5124261;28;20095;-63
2021/06/20 11:29:45;;;;;;;2.97;1.80;;;;;;;27.52;48.74;97849.38;5124483;28;20027;-63
2021/06/20 11:32:21;;;;;;;3.70;1.60;;;;;;;27.10;49.85;97834.69;5124493;28;20218;-63
2021/06/20 11:34:52;;;;;;;2.70;1.77;;;;;;;27.79;50.24;97841.19;5124401;28;20023;-63
2021/06/20 11:37:23;;;;;;;6.78;1.60;;;;;;;28.02;50.36;97831.63;5124452;28;20024;-63